Terminal Aerodrome Forecast
Issued by NWS Charleston, WV

Current Version | Previous Version | Graphics & Text | Print | Product List | Glossary On
Versions: 1 2 3 4 5 6 7 8 9 10 11 12 13 14 15 16 17 18 19 20 21 22 23 24 25 26
000
FTUS41 KRLX 161444 AAC
TAFPKB
TAF AMD
KPKB 161444Z 1615/1712 28004KT 2SM -SN FEW009 OVC025
      TEMPO 1615/1617 1SM -SN OVC007
     FM161700 27005KT 5SM -SN OVC022
      TEMPO 1617/1620 2SM -SN OVC015
     FM162200 30004KT P6SM BKN025=

USA.gov is the U.S. government's official web portal to all federal, state and local government web resources and services.